sensor_id;sensor_type;location;lat;lon;timestamp;P1;durP1;ratioP1;P2;durP2;ratioP2
43413;SDS011;29013;49.676;8.606;2023-07-28T00:01:12;1.45;;;1.06;;
43413;SDS011;29013;49.676;8.606;2023-07-28T00:06:36;1.25;;;1.01;;
43413;SDS011;29013;49.676;8.606;2023-07-28T00:12:38;1.84;;;1.44;;
43413;SDS011;29013;49.676;8.606;2023-07-28T00:17:58;1.6;;;0.81;;
43413;SDS011;29013;49.676;8.606;2023-07-28T00:23:22;1.61;;;1.11;;
43413;SDS011;29013;49.676;8.606;2023-07-28T00:28:42;1.43;;;1.15;;
43413;SDS011;29013;49.676;8.606;2023-07-28T00:34:07;1.76;;;1.27;;
43413;SDS011;29013;49.676;8.606;2023-07-28T00:39:29;2.03;;;1.11;;
43413;SDS011;29013;49.676;8.606;2023-07-28T00:44:51;2.29;;;0.88;;
43413;SDS011;29013;49.676;8.606;2023-07-28T00:50:12;1.33;;;0.88;;
43413;SDS011;29013;49.676;8.606;2023-07-28T00:56:00;1.7;;;1.3;;
43413;SDS011;29013;49.676;8.606;2023-07-28T01:01:23;1.84;;;1.19;;
43413;SDS011;29013;49.676;8.606;2023-07-28T01:06:49;1.56;;;1.2;;
43413;SDS011;29013;49.676;8.606;2023-07-28T01:12:09;4.03;;;1.28;;
43413;SDS011;29013;49.676;8.606;2023-07-28T01:17:34;1.44;;;1.05;;
43413;SDS011;29013;49.676;8.606;2023-07-28T01:23:20;2.11;;;1.49;;
43413;SDS011;29013;49.676;8.606;2023-07-28T01:28:41;1.29;;;1.05;;
43413;SDS011;29013;49.676;8.606;2023-07-28T01:34:06;2.39;;;1.25;;
43413;SDS011;29013;49.676;8.606;2023-07-28T01:39:32;1.78;;;1.08;;
43413;SDS011;29013;49.676;8.606;2023-07-28T01:44:57;1.85;;;1.27;;
43413;SDS011;29013;49.676;8.606;2023-07-28T01:50:16;1.38;;;1.1;;
43413;SDS011;29013;49.676;8.606;2023-07-28T01:55:35;2.18;;;1.38;;
43413;SDS011;29013;49.676;8.606;2023-07-28T02:01:03;2.3;;;1.26;;
43413;SDS011;29013;49.676;8.606;2023-07-28T02:06:27;1.42;;;1.16;;
43413;SDS011;29013;49.676;8.606;2023-07-28T02:12:06;1.72;;;1.24;;
43413;SDS011;29013;49.676;8.606;2023-07-28T02:17:29;1.14;;;0.86;;
43413;SDS011;29013;49.676;8.606;2023-07-28T02:22:53;1.89;;;1.12;;
43413;SDS011;29013;49.676;8.606;2023-07-28T02:28:18;1.68;;;0.96;;
43413;SDS011;29013;49.676;8.606;2023-07-28T02:33:39;1.23;;;0.96;;
43413;SDS011;29013;49.676;8.606;2023-07-28T02:39:44;1.74;;;1.16;;
43413;SDS011;29013;49.676;8.606;2023-07-28T02:45:09;1.64;;;1.14;;
43413;SDS011;29013;49.676;8.606;2023-07-28T02:50:33;1.75;;;1.04;;
43413;SDS011;29013;49.676;8.606;2023-07-28T02:55:58;1.21;;;0.97;;
43413;SDS011;29013;49.676;8.606;2023-07-28T03:01:21;1.74;;;0.92;;
43413;SDS011;29013;49.676;8.606;2023-07-28T03:06:43;1.34;;;0.98;;
43413;SDS011;29013;49.676;8.606;2023-07-28T03:12:08;1.17;;;0.87;;
43413;SDS011;29013;49.676;8.606;2023-07-28T03:17:33;1.0;;;0.93;;
43413;SDS011;29013;49.676;8.606;2023-07-28T03:22:57;1.36;;;1.1;;
43413;SDS011;29013;49.676;8.606;2023-07-28T03:28:21;1.01;;;0.75;;
43413;SDS011;29013;49.676;8.606;2023-07-28T03:33:44;1.49;;;1.23;;
43413;SDS011;29013;49.676;8.606;2023-07-28T03:39:10;1.17;;;0.99;;
43413;SDS011;29013;49.676;8.606;2023-07-28T03:44:34;1.55;;;1.09;;
43413;SDS011;29013;49.676;8.606;2023-07-28T03:49:56;1.26;;;1.12;;
43413;SDS011;29013;49.676;8.606;2023-07-28T03:55:44;1.75;;;1.16;;
43413;SDS011;29013;49.676;8.606;2023-07-28T04:01:20;1.47;;;1.01;;
43413;SDS011;29013;49.676;8.606;2023-07-28T04:06:45;1.15;;;0.83;;
43413;SDS011;29013;49.676;8.606;2023-07-28T04:12:08;1.76;;;0.97;;
43413;SDS011;29013;49.676;8.606;2023-07-28T04:17:32;1.62;;;1.31;;
43413;SDS011;29013;49.676;8.606;2023-07-28T04:22:54;1.7;;;1.07;;
43413;SDS011;29013;49.676;8.606;2023-07-28T04:28:18;2.86;;;1.17;;
43413;SDS011;29013;49.676;8.606;2023-07-28T04:33:42;1.98;;;0.97;;
43413;SDS011;29013;49.676;8.606;2023-07-28T04:39:06;1.64;;;0.98;;
43413;SDS011;29013;49.676;8.606;2023-07-28T04:44:28;1.33;;;0.88;;
43413;SDS011;29013;49.676;8.606;2023-07-28T04:49:46;2.49;;;0.89;;
43413;SDS011;29013;49.676;8.606;2023-07-28T04:55:09;1.24;;;1.04;;
43413;SDS011;29013;49.676;8.606;2023-07-28T05:00:31;1.0;;;0.85;;
43413;SDS011;29013;49.676;8.606;2023-07-28T05:06:16;1.67;;;1.22;;
43413;SDS011;29013;49.676;8.606;2023-07-28T05:11:37;1.53;;;1.09;;
43413;SDS011;29013;49.676;8.606;2023-07-28T05:17:01;1.69;;;1.28;;
43413;SDS011;29013;49.676;8.606;2023-07-28T05:22:24;2.95;;;1.22;;
43413;SDS011;29013;49.676;8.606;2023-07-28T05:27:51;1.25;;;0.99;;
43413;SDS011;29013;49.676;8.606;2023-07-28T05:33:13;1.81;;;1.05;;
43413;SDS011;29013;49.676;8.606;2023-07-28T05:38:35;1.38;;;1.17;;
43413;SDS011;29013;49.676;8.606;2023-07-28T05:43:59;3.5;;;1.07;;
43413;SDS011;29013;49.676;8.606;2023-07-28T05:49:22;4.16;;;1.15;;
43413;SDS011;29013;49.676;8.606;2023-07-28T05:54:43;2.79;;;1.41;;
43413;SDS011;29013;49.676;8.606;2023-07-28T06:00:08;3.67;;;1.08;;
43413;SDS011;29013;49.676;8.606;2023-07-28T06:05:53;3.13;;;1.38;;
43413;SDS011;29013;49.676;8.606;2023-07-28T06:11:16;1.35;;;0.9;;
43413;SDS011;29013;49.676;8.606;2023-07-28T06:16:41;1.37;;;0.95;;
43413;SDS011;29013;49.676;8.606;2023-07-28T06:22:36;2.81;;;1.36;;
43413;SDS011;29013;49.676;8.606;2023-07-28T06:27:58;1.47;;;1.13;;
43413;SDS011;29013;49.676;8.606;2023-07-28T06:33:19;1.05;;;0.83;;
43413;SDS011;29013;49.676;8.606;2023-07-28T06:38:44;1.55;;;1.2;;
43413;SDS011;29013;49.676;8.606;2023-07-28T06:44:05;1.41;;;0.96;;
43413;SDS011;29013;49.676;8.606;2023-07-28T06:49:27;1.45;;;0.79;;
43413;SDS011;29013;49.676;8.606;2023-07-28T06:54:50;1.85;;;1.16;;
43413;SDS011;29013;49.676;8.606;2023-07-28T07:00:15;1.62;;;1.12;;
43413;SDS011;29013;49.676;8.606;2023-07-28T07:05:39;2.04;;;1.16;;
43413;SDS011;29013;49.676;8.606;2023-07-28T07:11:04;1.26;;;1.03;;
43413;SDS011;29013;49.676;8.606;2023-07-28T07:16:27;1.56;;;0.95;;
43413;SDS011;29013;49.676;8.606;2023-07-28T07:22:16;2.38;;;1.22;;
43413;SDS011;29013;49.676;8.606;2023-07-28T07:27:39;3.5;;;1.09;;
43413;SDS011;29013;49.676;8.606;2023-07-28T07:33:03;1.78;;;0.98;;
43413;SDS011;29013;49.676;8.606;2023-07-28T07:38:28;1.61;;;1.01;;
43413;SDS011;29013;49.676;8.606;2023-07-28T07:43:54;3.83;;;0.91;;
43413;SDS011;29013;49.676;8.606;2023-07-28T07:49:19;1.08;;;0.86;;
43413;SDS011;29013;49.676;8.606;2023-07-28T07:54:44;0.98;;;0.67;;
43413;SDS011;29013;49.676;8.606;2023-07-28T08:00:10;0.97;;;0.68;;
43413;SDS011;29013;49.676;8.606;2023-07-28T08:05:36;1.19;;;0.81;;
43413;SDS011;29013;49.676;8.606;2023-07-28T08:10:57;1.57;;;0.93;;
43413;SDS011;29013;49.676;8.606;2023-07-28T08:16:21;1.47;;;0.84;;
43413;SDS011;29013;49.676;8.606;2023-07-28T08:22:04;1.3;;;0.77;;
43413;SDS011;29013;49.676;8.606;2023-07-28T08:27:28;1.03;;;0.67;;
43413;SDS011;29013;49.676;8.606;2023-07-28T08:32:52;1.2;;;0.68;;
43413;SDS011;29013;49.676;8.606;2023-07-28T08:38:18;0.9;;;0.54;;
43413;SDS011;29013;49.676;8.606;2023-07-28T08:44:04;1.31;;;0.69;;
43413;SDS011;29013;49.676;8.606;2023-07-28T08:49:28;2.87;;;0.46;;
43413;SDS011;29013;49.676;8.606;2023-07-28T08:54:53;0.51;;;0.35;;
43413;SDS011;29013;49.676;8.606;2023-07-28T09:00:18;0.37;;;0.36;;
43413;SDS011;29013;49.676;8.606;2023-07-28T09:05:43;0.61;;;0.4;;
43413;SDS011;29013;49.676;8.606;2023-07-28T09:11:06;0.71;;;0.7;;
43413;SDS011;29013;49.676;8.606;2023-07-28T09:16:31;0.67;;;0.67;;
43413;SDS011;29013;49.676;8.606;2023-07-28T09:22:00;1.12;;;0.71;;
43413;SDS011;29013;49.676;8.606;2023-07-28T09:27:25;0.71;;;0.57;;
43413;SDS011;29013;49.676;8.606;2023-07-28T09:32:48;0.71;;;0.61;;
43413;SDS011;29013;49.676;8.606;2023-07-28T09:38:06;0.51;;;0.53;;
43413;SDS011;29013;49.676;8.606;2023-07-28T09:43:30;1.42;;;0.54;;
43413;SDS011;29013;49.676;8.606;2023-07-28T09:48:55;4.31;;;0.48;;
43413;SDS011;29013;49.676;8.606;2023-07-28T09:54:40;0.46;;;0.43;;
43413;SDS011;29013;49.676;8.606;2023-07-28T10:00:06;0.67;;;0.43;;
43413;SDS011;29013;49.676;8.606;2023-07-28T10:05:30;0.87;;;0.44;;
43413;SDS011;29013;49.676;8.606;2023-07-28T10:10:54;0.73;;;0.42;;
43413;SDS011;29013;49.676;8.606;2023-07-28T10:16:18;0.64;;;0.29;;
43413;SDS011;29013;49.676;8.606;2023-07-28T10:21:44;0.45;;;0.34;;
43413;SDS011;29013;49.676;8.606;2023-07-28T10:27:09;0.31;;;0.25;;
43413;SDS011;29013;49.676;8.606;2023-07-28T10:32:38;0.27;;;0.3;;
43413;SDS011;29013;49.676;8.606;2023-07-28T10:37:57;0.57;;;0.38;;
43413;SDS011;29013;49.676;8.606;2023-07-28T10:43:21;0.44;;;0.41;;
43413;SDS011;29013;49.676;8.606;2023-07-28T10:48:45;0.34;;;0.31;;
43413;SDS011;29013;49.676;8.606;2023-07-28T10:54:09;0.39;;;0.3;;
43413;SDS011;29013;49.676;8.606;2023-07-28T10:59:33;0.3;;;0.29;;
43413;SDS011;29013;49.676;8.606;2023-07-28T11:04:57;0.74;;;0.27;;
43413;SDS011;29013;49.676;8.606;2023-07-28T11:10:18;0.37;;;0.41;;
43413;SDS011;29013;49.676;8.606;2023-07-28T11:15:43;0.37;;;0.33;;
43413;SDS011;29013;49.676;8.606;2023-07-28T11:21:13;0.45;;;0.32;;
43413;SDS011;29013;49.676;8.606;2023-07-28T11:26:36;1.45;;;0.57;;
43413;SDS011;29013;49.676;8.606;2023-07-28T11:32:00;0.71;;;0.39;;
43413;SDS011;29013;49.676;8.606;2023-07-28T11:37:24;0.48;;;0.47;;
43413;SDS011;29013;49.676;8.606;2023-07-28T11:42:46;0.5;;;0.37;;
43413;SDS011;29013;49.676;8.606;2023-07-28T11:48:09;0.48;;;0.41;;
43413;SDS011;29013;49.676;8.606;2023-07-28T11:53:33;0.35;;;0.42;;
43413;SDS011;29013;49.676;8.606;2023-07-28T11:58:55;1.65;;;0.49;;
43413;SDS011;29013;49.676;8.606;2023-07-28T12:04:20;0.78;;;0.52;;
43413;SDS011;29013;49.676;8.606;2023-07-28T12:09:48;0.69;;;0.42;;
43413;SDS011;29013;49.676;8.606;2023-07-28T12:15:20;0.31;;;0.28;;
43413;SDS011;29013;49.676;8.606;2023-07-28T12:20:40;0.57;;;0.38;;
43413;SDS011;29013;49.676;8.606;2023-07-28T12:26:03;0.3;;;0.34;;
43413;SDS011;29013;49.676;8.606;2023-07-28T12:31:29;0.47;;;0.43;;
43413;SDS011;29013;49.676;8.606;2023-07-28T12:36:54;0.53;;;0.48;;
43413;SDS011;29013;49.676;8.606;2023-07-28T12:42:15;0.86;;;0.64;;
43413;SDS011;29013;49.676;8.606;2023-07-28T12:47:41;0.96;;;0.78;;
43413;SDS011;29013;49.676;8.606;2023-07-28T12:53:05;1.09;;;0.67;;
43413;SDS011;29013;49.676;8.606;2023-07-28T12:58:25;0.6;;;0.56;;
43413;SDS011;29013;49.676;8.606;2023-07-28T13:04:03;0.58;;;0.64;;
43413;SDS011;29013;49.676;8.606;2023-07-28T13:09:33;0.46;;;0.45;;
43413;SDS011;29013;49.676;8.606;2023-07-28T13:14:55;0.79;;;0.54;;
43413;SDS011;29013;49.676;8.606;2023-07-28T13:20:20;0.6;;;0.54;;
43413;SDS011;29013;49.676;8.606;2023-07-28T13:25:39;0.83;;;0.81;;
43413;SDS011;29013;49.676;8.606;2023-07-28T13:31:04;1.53;;;0.73;;
43413;SDS011;29013;49.676;8.606;2023-07-28T13:36:28;0.75;;;0.56;;
43413;SDS011;29013;49.676;8.606;2023-07-28T13:41:46;0.81;;;0.67;;
43413;SDS011;29013;49.676;8.606;2023-07-28T13:47:07;1.28;;;0.66;;
43413;SDS011;29013;49.676;8.606;2023-07-28T13:52:52;1.4;;;0.62;;
43413;SDS011;29013;49.676;8.606;2023-07-28T13:58:17;0.35;;;0.37;;
43413;SDS011;29013;49.676;8.606;2023-07-28T14:03:36;2.73;;;0.41;;
43413;SDS011;29013;49.676;8.606;2023-07-28T14:08:59;0.7;;;0.25;;
43413;SDS011;29013;49.676;8.606;2023-07-28T14:14:25;0.37;;;0.33;;
43413;SDS011;29013;49.676;8.606;2023-07-28T14:19:50;0.34;;;0.35;;
43413;SDS011;29013;49.676;8.606;2023-07-28T14:25:15;0.24;;;0.28;;
43413;SDS011;29013;49.676;8.606;2023-07-28T14:30:39;0.46;;;0.43;;
43413;SDS011;29013;49.676;8.606;2023-07-28T14:36:19;0.48;;;0.44;;
43413;SDS011;29013;49.676;8.606;2023-07-28T14:41:43;0.48;;;0.42;;
43413;SDS011;29013;49.676;8.606;2023-07-28T14:47:06;0.39;;;0.39;;
43413;SDS011;29013;49.676;8.606;2023-07-28T14:52:28;1.56;;;0.31;;
43413;SDS011;29013;49.676;8.606;2023-07-28T14:58:16;0.89;;;0.65;;
43413;SDS011;29013;49.676;8.606;2023-07-28T15:03:37;1.09;;;0.72;;
43413;SDS011;29013;49.676;8.606;2023-07-28T15:09:00;1.04;;;0.76;;
43413;SDS011;29013;49.676;8.606;2023-07-28T15:14:21;0.7;;;0.69;;
43413;SDS011;29013;49.676;8.606;2023-07-28T15:19:46;1.08;;;0.81;;
43413;SDS011;29013;49.676;8.606;2023-07-28T15:25:11;1.99;;;1.09;;
43413;SDS011;29013;49.676;8.606;2023-07-28T15:30:51;2.02;;;1.21;;
43413;SDS011;29013;49.676;8.606;2023-07-28T15:36:13;1.36;;;1.1;;
43413;SDS011;29013;49.676;8.606;2023-07-28T15:41:37;1.46;;;1.05;;
43413;SDS011;29013;49.676;8.606;2023-07-28T15:46:58;1.02;;;0.7;;
43413;SDS011;29013;49.676;8.606;2023-07-28T15:52:20;1.28;;;1.03;;
43413;SDS011;29013;49.676;8.606;2023-07-28T15:57:44;1.53;;;0.88;;
43413;SDS011;29013;49.676;8.606;2023-07-28T16:18:19;1.24;;;0.91;;
43413;SDS011;29013;49.676;8.606;2023-07-28T16:23:41;2.2;;;1.01;;
43413;SDS011;29013;49.676;8.606;2023-07-28T16:29:49;1.16;;;0.86;;
43413;SDS011;29013;49.676;8.606;2023-07-28T16:35:08;0.94;;;0.74;;
43413;SDS011;29013;49.676;8.606;2023-07-28T16:40:30;0.94;;;0.71;;
43413;SDS011;29013;49.676;8.606;2023-07-28T16:45:49;0.97;;;0.73;;
43413;SDS011;29013;49.676;8.606;2023-07-28T16:51:10;1.28;;;0.72;;
43413;SDS011;29013;49.676;8.606;2023-07-28T16:56:32;1.26;;;0.93;;
43413;SDS011;29013;49.676;8.606;2023-07-28T17:01:56;0.95;;;0.79;;
43413;SDS011;29013;49.676;8.606;2023-07-28T17:07:17;0.83;;;0.63;;
43413;SDS011;29013;49.676;8.606;2023-07-28T17:12:42;0.95;;;0.8;;
43413;SDS011;29013;49.676;8.606;2023-07-28T17:18:05;1.83;;;0.95;;
43413;SDS011;29013;49.676;8.606;2023-07-28T17:23:27;1.17;;;0.97;;
43413;SDS011;29013;49.676;8.606;2023-07-28T17:28:52;1.61;;;0.71;;
43413;SDS011;29013;49.676;8.606;2023-07-28T17:34:17;1.15;;;0.72;;
43413;SDS011;29013;49.676;8.606;2023-07-28T17:39:40;1.12;;;0.98;;
43413;SDS011;29013;49.676;8.606;2023-07-28T17:45:04;0.93;;;0.64;;
43413;SDS011;29013;49.676;8.606;2023-07-28T17:50:30;1.06;;;0.59;;
43413;SDS011;29013;49.676;8.606;2023-07-28T17:55:55;0.85;;;0.56;;
43413;SDS011;29013;49.676;8.606;2023-07-28T18:01:18;1.24;;;0.62;;
43413;SDS011;29013;49.676;8.606;2023-07-28T18:06:40;0.76;;;0.7;;
43413;SDS011;29013;49.676;8.606;2023-07-28T18:12:05;1.19;;;0.78;;
43413;SDS011;29013;49.676;8.606;2023-07-28T18:17:29;0.9;;;0.66;;
43413;SDS011;29013;49.676;8.606;2023-07-28T18:22:54;0.99;;;0.82;;
43413;SDS011;29013;49.676;8.606;2023-07-28T18:28:18;1.28;;;0.8;;
43413;SDS011;29013;49.676;8.606;2023-07-28T18:33:44;0.7;;;0.65;;
43413;SDS011;29013;49.676;8.606;2023-07-28T18:39:09;1.21;;;0.82;;
43413;SDS011;29013;49.676;8.606;2023-07-28T18:44:34;1.89;;;0.95;;
43413;SDS011;29013;49.676;8.606;2023-07-28T18:49:59;1.02;;;0.94;;
43413;SDS011;29013;49.676;8.606;2023-07-28T18:55:40;1.07;;;0.93;;
43413;SDS011;29013;49.676;8.606;2023-07-28T19:01:03;1.5;;;0.91;;
43413;SDS011;29013;49.676;8.606;2023-07-28T19:06:26;1.38;;;0.99;;
43413;SDS011;29013;49.676;8.606;2023-07-28T19:12:07;1.35;;;1.02;;
43413;SDS011;29013;49.676;8.606;2023-07-28T19:17:31;1.09;;;0.95;;
43413;SDS011;29013;49.676;8.606;2023-07-28T19:23:20;2.74;;;1.43;;
43413;SDS011;29013;49.676;8.606;2023-07-28T19:28:33;5.03;;;1.22;;
43413;SDS011;29013;49.676;8.606;2023-07-28T19:33:58;2.98;;;1.23;;
43413;SDS011;29013;49.676;8.606;2023-07-28T19:39:30;3.59;;;1.3;;
43413;SDS011;29013;49.676;8.606;2023-07-28T19:44:51;1.37;;;1.05;;
43413;SDS011;29013;49.676;8.606;2023-07-28T19:50:13;1.37;;;1.05;;
43413;SDS011;29013;49.676;8.606;2023-07-28T19:55:34;2.46;;;1.36;;
43413;SDS011;29013;49.676;8.606;2023-07-28T20:00:58;2.97;;;1.07;;
43413;SDS011;29013;49.676;8.606;2023-07-28T20:06:22;2.17;;;1.28;;
43413;SDS011;29013;49.676;8.606;2023-07-28T20:11:43;1.6;;;1.07;;
43413;SDS011;29013;49.676;8.606;2023-07-28T20:17:07;3.55;;;1.18;;
43413;SDS011;29013;49.676;8.606;2023-07-28T20:22:29;2.98;;;1.18;;
43413;SDS011;29013;49.676;8.606;2023-07-28T20:27:54;1.97;;;1.14;;
43413;SDS011;29013;49.676;8.606;2023-07-28T20:33:20;1.46;;;1.24;;
43413;SDS011;29013;49.676;8.606;2023-07-28T20:38:42;2.14;;;1.67;;
43413;SDS011;29013;49.676;8.606;2023-07-28T20:44:19;1.74;;;1.48;;
43413;SDS011;29013;49.676;8.606;2023-07-28T20:50:07;3.1;;;1.52;;
43413;SDS011;29013;49.676;8.606;2023-07-28T20:55:31;1.67;;;1.41;;
43413;SDS011;29013;49.676;8.606;2023-07-28T21:00:54;1.86;;;1.38;;
43413;SDS011;29013;49.676;8.606;2023-07-28T21:06:14;2.75;;;1.53;;
43413;SDS011;29013;49.676;8.606;2023-07-28T21:11:35;1.74;;;1.33;;
43413;SDS011;29013;49.676;8.606;2023-07-28T21:17:00;1.91;;;1.3;;
43413;SDS011;29013;49.676;8.606;2023-07-28T21:22:24;2.09;;;1.14;;
43413;SDS011;29013;49.676;8.606;2023-07-28T21:27:49;1.02;;;1.05;;
43413;SDS011;29013;49.676;8.606;2023-07-28T21:33:26;1.56;;;1.34;;
43413;SDS011;29013;49.676;8.606;2023-07-28T21:38:49;1.85;;;1.28;;
43413;SDS011;29013;49.676;8.606;2023-07-28T21:44:13;1.62;;;1.37;;
43413;SDS011;29013;49.676;8.606;2023-07-28T21:49:36;2.02;;;1.48;;
43413;SDS011;29013;49.676;8.606;2023-07-28T21:55:03;1.75;;;1.3;;
43413;SDS011;29013;49.676;8.606;2023-07-28T22:00:27;1.53;;;1.27;;
43413;SDS011;29013;49.676;8.606;2023-07-28T22:05:53;2.87;;;1.4;;
43413;SDS011;29013;49.676;8.606;2023-07-28T22:11:17;1.03;;;0.97;;
43413;SDS011;29013;49.676;8.606;2023-07-28T22:16:42;1.38;;;1.2;;
43413;SDS011;29013;49.676;8.606;2023-07-28T22:22:08;1.37;;;1.17;;
43413;SDS011;29013;49.676;8.606;2023-07-28T22:27:31;1.77;;;1.29;;
43413;SDS011;29013;49.676;8.606;2023-07-28T22:32:55;1.92;;;1.01;;
43413;SDS011;29013;49.676;8.606;2023-07-28T22:38:14;1.21;;;1.14;;
43413;SDS011;29013;49.676;8.606;2023-07-28T22:43:37;1.68;;;1.27;;
43413;SDS011;29013;49.676;8.606;2023-07-28T22:49:00;1.56;;;1.14;;
43413;SDS011;29013;49.676;8.606;2023-07-28T22:54:25;2.04;;;1.17;;
43413;SDS011;29013;49.676;8.606;2023-07-28T22:59:46;1.29;;;0.99;;
43413;SDS011;29013;49.676;8.606;2023-07-28T23:05:09;1.35;;;1.22;;
43413;SDS011;29013;49.676;8.606;2023-07-28T23:10:30;1.84;;;1.23;;
43413;SDS011;29013;49.676;8.606;2023-07-28T23:16:19;2.63;;;1.4;;
43413;SDS011;29013;49.676;8.606;2023-07-28T23:21:49;1.58;;;1.19;;
43413;SDS011;29013;49.676;8.606;2023-07-28T23:27:08;4.46;;;1.36;;
43413;SDS011;29013;49.676;8.606;2023-07-28T23:32:32;1.29;;;1.02;;
43413;SDS011;29013;49.676;8.606;2023-07-28T23:38:33;1.67;;;1.42;;
43413;SDS011;29013;49.676;8.606;2023-07-28T23:43:56;1.43;;;0.96;;
43413;SDS011;29013;49.676;8.606;2023-07-28T23:49:21;1.03;;;0.8;;
43413;SDS011;29013;49.676;8.606;2023-07-28T23:54:47;4.52;;;0.58;;
